To NAV CANADA Home Page Login to a new session Search on AWWS site Feedback and Comments Disclaimer Vers la page française équivalente Tips FAQ What's new on the site To the Forecasts and Observations / NOTAM section To "File a Flight Plan" website Publications and other links Update of the User's profile FIC Telephone Numbers My Weather Data Folder Route Weather Data Regional Weather Data Local Weather Data To the Forecasts and Observations / NOTAM section
Request Generated 02/09/2016 at 17:47:02 UTC . Weather information available at that time is displayed.

METAR/TAF

NATASHQUAN/QC    (show WxCam)

SPECI CYNA 091745Z AUTO 04019G30KT 5SM HZ SCT060 SCT074 BKN100
M09/M14 A2980 RMK SLP095=
SPECI CYNA 091737Z AUTO 04024G32KT 5SM -SN SCT095 SCT110 M09/M14
A2980 RMK SLP094=
SPECI CYNA 091735Z AUTO 04022G32KT 6SM -SN SCT090 SCT110 M09/M14
A2980 RMK SLP094=
SPECI CYNA 091726Z AUTO 04026G32KT 5SM -SN BKN090 BKN110 M09/M14
A2980 RMK SLP095=
SPECI CYNA 091725Z AUTO 04025G32KT 5SM HZ BKN090 BKN110 M09/M14 A2980
RMK SLP094=
SPECI CYNA 091721Z AUTO 04021G31KT 6SM HZ OVC090 M09/M14 A2980 RMK
SLP095=
SPECI CYNA 091719Z AUTO 04023G31KT 6SM -SN OVC085 M09/M14 A2981 RMK
SLP096=
SPECI CYNA 091708Z AUTO 04025G33KT 4SM -SN OVC085 M09/M14 A2980 RMK
SLP095=
SPECI CYNA 091702Z AUTO 04024G30KT 5SM HZ OVC085 M09/M14 A2981 RMK
SLP096=
METAR CYNA 091700Z AUTO 04024G31KT 6SM HZ OVC085 M09/M14 A2981 RMK
SLP098=
METAR CYNA 091600Z AUTO 05017G27KT 9SM CLR M10/M15 A2986 RMK SLP115=
METAR CYNA 091500Z AUTO 04018G28KT 9SM CLR M11/M16 A2988 RMK SLP121=

TAF CYNA 091338Z 0914/1002 03020G30KT P6SM FEW040 OVC150 TEMPO
0914/0918 4SM BLSN
FM091800 04020G30KT P6SM BKN040 OVC150 TEMPO 0918/0920 2SM -SN
BLSN
FM092000 04020G30KT 5SM -SN SCT020 OVC050 TEMPO 0920/0923 11/2SM
-SN BLSN SCT006 OVC020
FM092300 04020G30KT 3/4SM -SN BLSN VV005 TEMPO 0923/1002 2SM -SN
BLSN OVC010
RMK FCST BASED ON AUTO OBS. NXT FCST BY 092000Z=
Your time UTC time
Weather data provided by Environment Canada and NAV CANADA